Virginiborg — PBDL — position and weather

sailwx.info

Track history (hours):
 
Tides and Currents Weather Stations Pressure Air Temp Water Temp Dewpoint Dewpoint Depression Visibility Wind Speed Wind Dir Waves Ship Positions

Virginiborg

Last reported at 2017-Jan-17 11:25 UTC. Time now 2017-Jan-23 10:45 UTC.
Position N 60°06' E 019°13'.

Length 132 m; draft 8.3 m.

Type: Cargo ship. MMSI: 244632000.

Date/timePositionNaut miles runAvg speedWind from/ knotsBaromVisibWave heightAir tempDewpointWater temp
2017-Jan-17 11:25N 60°06' E 019°13'910.9
2017-Jan-17 10:33N 59°59' E 019°25'1311.0
2017-Jan-17 09:20N 59°49' E 019°42'  
2017-Jan-14 19:33N 55°34' E 015°12'1211.5
2017-Jan-14 18:33N 55°28' E 014°54'1111.3
2017-Jan-14 17:33N 55°22' E 014°38'1111.3
2017-Jan-14 16:33N 55°13' E 014°25'1111.4
2017-Jan-14 15:33N 55°04' E 014°12'1111.0
2017-Jan-14 14:33N 54°59' E 013°56'4511.1
2017-Jan-14 10:32N 54°44' E 012°42'2110.7
2017-Jan-14 08:31N 54°30' E 012°15'10 9.9
2017-Jan-14 07:33N 54°25' E 012°01'2711.1
2017-Jan-14 05:10N 54°33' E 011°18'711.2
2017-Jan-14 04:33N 54°35' E 011°06'1211.5
2017-Jan-14 03:31N 54°34' E 010°46'59 6.5
2017-Jan-13 18:25N 54°04' E 009°19'7 8.2
2017-Jan-13 17:33N 53°58' E 009°15'1 1.2
2017-Jan-13 16:33N 53°57' E 009°14'2 2.4
2017-Jan-13 15:32N 53°55' E 009°11'0 0.0
2017-Jan-13 14:32N 53°55' E 009°11'0 0.0
2017-Jan-13 13:31N 53°55' E 009°11'0 0.0
2017-Jan-13 12:31N 53°55' E 009°11'0 0.3
2017-Jan-13 11:33N 53°55' E 009°11'2 2.4
2017-Jan-13 10:33N 53°53' E 009°07'3 3.0
2017-Jan-13 09:33N 53°52' E 009°03'1211.9
2017-Jan-13 08:33N 53°53' E 008°42'1212.0
2017-Jan-13 07:33N 53°59' E 008°24'1211.9
2017-Jan-13 06:33N 53°59' E 008°04'14110.9
2017-Jan-12 17:33N 53°04' E 004°25'1110.7
2017-Jan-12 16:33N 52°54' E 004°16'1110.8
2017-Jan-12 15:33N 52°45' E 004°08'1111.1
2017-Jan-12 14:32N 52°35' E 003°58'1110.9
2017-Jan-12 13:32N 52°25' E 003°51'10 4.4
2017-Jan-12 11:20N 52°17' E 003°43'2 3.0
2017-Jan-12 10:33N 52°14' E 003°43'3 2.7
2017-Jan-12 09:33N 52°12' E 003°42'3 2.8
2017-Jan-12 08:33N 52°11' E 003°38'3 0.5
2017-Jan-12 01:26N 52°10' E 003°43'2 0.4
2017-Jan-11 20:29N 52°09' E 003°44'0 0.2
2017-Jan-11 19:28N 52°08' E 003°44'0 0.1
2017-Jan-11 18:31N 52°08' E 003°44'0 0.0
2017-Jan-11 04:18N 52°09' E 003°44'0 0.0
2017-Jan-11 02:08N 52°09' E 003°44'0 0.0
2017-Jan-10 21:30N 52°09' E 003°44'0 0.0
2017-Jan-10 20:33N 52°09' E 003°44'0 0.0
2017-Jan-10 19:27N 52°09' E 003°44'0 0.0
2017-Jan-10 18:32N 52°09' E 003°44'0 0.0
2017-Jan-10 09:04N 52°09' E 003°44'0 0.0
2017-Jan-10 08:21N 52°09' E 003°44'0 0.0
2017-Jan-10 07:15N 52°09' E 003°44'0 0.0
2017-Jan-10 06:30N 52°09' E 003°44'0 0.0
2017-Jan-10 05:20N 52°09' E 003°44'0 0.0
2017-Jan-09 21:14N 52°09' E 003°44'0 0.0
2017-Jan-09 14:14N 52°09' E 003°44'0 0.0
2017-Jan-09 13:31N 52°09' E 003°44'0 0.0
2017-Jan-09 09:23N 52°09' E 003°44'0 0.2
2017-Jan-09 07:33N 52°09' E 003°43'1110.9
2017-Jan-09 06:33N 51°59' E 003°36'1010.4
2017-Jan-09 05:33N 51°54' E 003°21'7 7.3
2017-Jan-09 04:33N 51°52' E 003°10'8 7.6
2017-Jan-09 03:32N 51°50' E 002°58'15 7.6
2017-Jan-09 01:33N 51°44' E 002°35'8 7.7
2017-Jan-09 00:30N 51°38' E 002°27'7 7.6
2017-Jan-08 23:33N 51°32' E 002°20'8 8.5
2017-Jan-08 22:33N 51°26' E 002°12'9 9.2
2017-Jan-08 21:33N 51°17' E 002°06'10 9.6
2017-Jan-08 20:33N 51°11' E 001°55'1010.1
2017-Jan-08 19:33N 51°04' E 001°42'1110.7
2017-Jan-08 18:32N 50°57' E 001°29'1010.0
2017-Jan-08 17:33N 50°48' E 001°24'5210.0
2017-Jan-08 12:17N 50°22' E 000°12'710.0
2017-Jan-08 11:33N 50°20' E 000°01'10 9.8
2017-Jan-08 10:33N 50°17' W 000°14'31 9.6
2017-Jan-08 07:17N 50°10' W 001°01'810.9
2017-Jan-08 06:33N 50°08' W 001°13'1211.9
2017-Jan-08 05:33N 50°04' W 001°31'1312.9
2017-Jan-08 04:31N 50°01' W 001°51'3913.1
2017-Jan-08 01:33N 49°51' W 002°49'1212.0
2017-Jan-08 00:31N 49°50' W 003°09'1111.7
2017-Jan-07 23:33N 49°50' W 003°26'1111.4
2017-Jan-07 22:33N 49°50' W 003°44'2411.5
2017-Jan-07 20:27N 49°50' W 004°21'1211.8
2017-Jan-07 19:27N 49°50' W 004°40'1412.5
2017-Jan-07 18:20N 49°50' W 005°01'50 9.7
2017-Jan-07 13:08N 50°23' W 006°01'  
Track history (hours):
 
Tides and Currents Weather Stations Pressure Air Temp Water Temp Dewpoint Dewpoint Depression Visibility Wind Speed Wind Dir Waves Ship Positions

Virginiborg

Last reported at 2017-Jan-17 11:25 UTC. Time now 2017-Jan-23 10:45 UTC.
Position N 60°06' E 019°13'.

Length 132 m; draft 8.3 m.

Type: Cargo ship. MMSI: 244632000.

Date/timePositionNaut miles runAvg speedWind from/ knotsBaromVisibWave heightAir tempDewpointWater temp
2017-Jan-17 11:25N 60°06' E 019°13'910.9
2017-Jan-17 10:33N 59°59' E 019°25'1311.0
2017-Jan-17 09:20N 59°49' E 019°42'  
2017-Jan-14 19:33N 55°34' E 015°12'1211.5
2017-Jan-14 18:33N 55°28' E 014°54'1111.3
2017-Jan-14 17:33N 55°22' E 014°38'1111.3
2017-Jan-14 16:33N 55°13' E 014°25'1111.4
2017-Jan-14 15:33N 55°04' E 014°12'1111.0
2017-Jan-14 14:33N 54°59' E 013°56'4511.1
2017-Jan-14 10:32N 54°44' E 012°42'2110.7
2017-Jan-14 08:31N 54°30' E 012°15'10 9.9
2017-Jan-14 07:33N 54°25' E 012°01'2711.1
2017-Jan-14 05:10N 54°33' E 011°18'711.2
2017-Jan-14 04:33N 54°35' E 011°06'1211.5
2017-Jan-14 03:31N 54°34' E 010°46'59 6.5
2017-Jan-13 18:25N 54°04' E 009°19'7 8.2
2017-Jan-13 17:33N 53°58' E 009°15'1 1.2
2017-Jan-13 16:33N 53°57' E 009°14'2 2.4
2017-Jan-13 15:32N 53°55' E 009°11'0 0.0
2017-Jan-13 14:32N 53°55' E 009°11'0 0.0
2017-Jan-13 13:31N 53°55' E 009°11'0 0.0
2017-Jan-13 12:31N 53°55' E 009°11'0 0.3
2017-Jan-13 11:33N 53°55' E 009°11'2 2.4
2017-Jan-13 10:33N 53°53' E 009°07'3 3.0
2017-Jan-13 09:33N 53°52' E 009°03'1211.9
2017-Jan-13 08:33N 53°53' E 008°42'1212.0
2017-Jan-13 07:33N 53°59' E 008°24'1211.9
2017-Jan-13 06:33N 53°59' E 008°04'14110.9
2017-Jan-12 17:33N 53°04' E 004°25'1110.7
2017-Jan-12 16:33N 52°54' E 004°16'1110.8
2017-Jan-12 15:33N 52°45' E 004°08'1111.1
2017-Jan-12 14:32N 52°35' E 003°58'1110.9
2017-Jan-12 13:32N 52°25' E 003°51'10 4.4
2017-Jan-12 11:20N 52°17' E 003°43'2 3.0
2017-Jan-12 10:33N 52°14' E 003°43'3 2.7
2017-Jan-12 09:33N 52°12' E 003°42'3 2.8
2017-Jan-12 08:33N 52°11' E 003°38'3 0.5
2017-Jan-12 01:26N 52°10' E 003°43'2 0.4
2017-Jan-11 20:29N 52°09' E 003°44'0 0.2
2017-Jan-11 19:28N 52°08' E 003°44'0 0.1
2017-Jan-11 18:31N 52°08' E 003°44'0 0.0
2017-Jan-11 04:18N 52°09' E 003°44'0 0.0
2017-Jan-11 02:08N 52°09' E 003°44'0 0.0
2017-Jan-10 21:30N 52°09' E 003°44'0 0.0
2017-Jan-10 20:33N 52°09' E 003°44'0 0.0
2017-Jan-10 19:27N 52°09' E 003°44'0 0.0
2017-Jan-10 18:32N 52°09' E 003°44'0 0.0
2017-Jan-10 09:04N 52°09' E 003°44'0 0.0
2017-Jan-10 08:21N 52°09' E 003°44'0 0.0
2017-Jan-10 07:15N 52°09' E 003°44'0 0.0
2017-Jan-10 06:30N 52°09' E 003°44'0 0.0
2017-Jan-10 05:20N 52°09' E 003°44'0 0.0
2017-Jan-09 21:14N 52°09' E 003°44'0 0.0
2017-Jan-09 14:14N 52°09' E 003°44'0 0.0
2017-Jan-09 13:31N 52°09' E 003°44'0 0.0
2017-Jan-09 09:23N 52°09' E 003°44'0 0.2
2017-Jan-09 07:33N 52°09' E 003°43'1110.9
2017-Jan-09 06:33N 51°59' E 003°36'1010.4
2017-Jan-09 05:33N 51°54' E 003°21'7 7.3
2017-Jan-09 04:33N 51°52' E 003°10'8 7.6
2017-Jan-09 03:32N 51°50' E 002°58'15 7.6
2017-Jan-09 01:33N 51°44' E 002°35'8 7.7
2017-Jan-09 00:30N 51°38' E 002°27'7 7.6
2017-Jan-08 23:33N 51°32' E 002°20'8 8.5
2017-Jan-08 22:33N 51°26' E 002°12'9 9.2
2017-Jan-08 21:33N 51°17' E 002°06'10 9.6
2017-Jan-08 20:33N 51°11' E 001°55'1010.1
2017-Jan-08 19:33N 51°04' E 001°42'1110.7
2017-Jan-08 18:32N 50°57' E 001°29'1010.0
2017-Jan-08 17:33N 50°48' E 001°24'5210.0
2017-Jan-08 12:17N 50°22' E 000°12'710.0
2017-Jan-08 11:33N 50°20' E 000°01'10 9.8
2017-Jan-08 10:33N 50°17' W 000°14'31 9.6
2017-Jan-08 07:17N 50°10' W 001°01'810.9
2017-Jan-08 06:33N 50°08' W 001°13'1211.9
2017-Jan-08 05:33N 50°04' W 001°31'1312.9
2017-Jan-08 04:31N 50°01' W 001°51'3913.1
2017-Jan-08 01:33N 49°51' W 002°49'1212.0
2017-Jan-08 00:31N 49°50' W 003°09'1111.7
2017-Jan-07 23:33N 49°50' W 003°26'1111.4
2017-Jan-07 22:33N 49°50' W 003°44'2411.5
2017-Jan-07 20:27N 49°50' W 004°21'1211.8
2017-Jan-07 19:27N 49°50' W 004°40'1412.5
2017-Jan-07 18:20N 49°50' W 005°01'50 9.7
2017-Jan-07 13:08N 50°23' W 006°01'  

Dump ship's entire track history